Latest Weather Observations for Cessnock Airport

IDN60801

Issued at 10:05 pm EST Saturday 30 August 2014 (issued every 30 minutes, with the page automatically refreshed every 10 minutes)

About weather observations | Map of weather stations | Latest weather observations for NSW | Other Formats
Station Details ID: 061260 Name: CESSNOCK AIRPORT AWS Lat: -32.79 Lon: 151.34 Height: 61.0 m
Data from the previous 72 hours. | See also: Recent months at Cessnock Airport
Date/Time
EST
Temp
°C
App
Temp
°C
Dew
Point
Rel
Hum
%
Delta-T
°C
Wind Press
QNH
hPa
Press
MSL
hPa
Rain
since 9 am
mm
Dir
 
Spd
km/h
Gust
km/h
Spd
kts
Gust
kts
30/10:00pm 14.3 11.9 9.9 75 2.3 SW 13 20 7 11 1021.0 1021.1 0.0
30/09:30pm 14.2 12.5 9.8 75 2.3 SW 9 17 5 9 1021.1 - 0.0
30/09:00pm 14.5 12.5 10.1 75 2.3 SSW 11 20 6 11 1021.2 1021.3 0.0
30/08:30pm 14.3 11.9 9.9 75 2.3 SSW 13 19 7 10 1021.2 - 0.0
30/08:00pm 14.6 12.2 10.2 75 2.3 SW 13 20 7 11 1021.1 1021.2 0.0
30/07:30pm 14.4 12.5 10.4 77 2.1 SW 11 20 6 11 1021.1 - 0.0
30/07:00pm 13.8 11.3 9.8 77 2.1 SW 13 17 7 9 1020.9 1021.0 0.0
30/06:30pm 14.2 12.5 10.0 76 2.2 SSW 9 13 5 7 1020.8 - 0.0
30/06:00pm 14.4 12.4 10.2 76 2.2 SW 11 17 6 9 1020.7 1020.8 0.0
30/05:30pm 14.7 12.4 10.3 75 2.3 SW 13 19 7 10 1020.6 - 0.0
30/05:00pm 15.6 13.0 10.6 72 2.6 SW 15 24 8 13 1020.5 1020.6 0.0
30/04:30pm 16.0 12.6 10.7 71 2.8 SSW 19 30 10 16 1020.4 - 0.0
30/04:00pm 16.4 12.8 10.5 68 3.1 SSW 20 30 11 16 1020.4 1020.5 0.0
30/03:30pm 16.5 14.0 11.2 71 2.9 SW 15 26 8 14 1020.6 - 0.0
30/03:00pm 16.7 13.1 10.5 67 3.3 SSW 20 30 11 16 1020.6 1020.7 0.0
30/02:30pm 17.0 12.8 11.1 68 3.2 SSW 24 35 13 19 1020.8 - 0.0
30/02:00pm 16.1 11.6 10.0 67 3.2 SSW 24 33 13 18 1021.0 1021.1 0.0
30/01:30pm 16.1 11.5 9.8 66 3.3 SSW 24 32 13 17 1021.1 - 0.0
30/01:00pm 17.0 13.0 10.4 65 3.5 SSW 22 33 12 18 1021.1 1021.2 0.0
30/12:30pm 16.5 12.3 9.9 65 3.5 SSW 22 37 12 20 1021.4 - 0.0
30/12:00pm 16.7 12.7 10.3 66 3.4 SSW 22 30 12 16 1021.6 1021.7 0.0
30/11:30am 16.0 11.1 9.9 67 3.2 SSW 26 39 14 21 1022.0 - 0.0
30/11:00am 15.8 11.0 9.0 64 3.5 SSW 24 39 13 21 1022.3 1022.4 0.0
30/10:30am 14.9 10.8 8.8 67 3.1 SW 20 33 11 18 1022.4 - 0.0
30/10:00am 15.2 10.1 9.3 68 3.0 SSW 26 37 14 20 1022.4 1022.5 0.0
30/09:30am 14.0 9.4 8.2 68 2.9 S 22 35 12 19 1022.6 - 0.0
30/09:00am 14.6 10.0 8.3 66 3.2 SSW 22 35 12 19 1022.4 1022.5 0.0
30/08:30am 13.7 9.7 8.1 69 2.8 SSW 19 30 10 16 1022.6 - 0.0
30/08:00am 13.2 9.4 7.4 68 2.8 SSW 17 30 9 16 1022.4 1022.5 0.0
30/07:30am 13.0 8.7 7.0 67 2.9 SSW 19 26 10 14 1022.4 - 0.0
30/07:00am 12.9 8.5 6.7 66 3.0 SSW 19 26 10 14 1022.2 1022.3 0.0
30/06:30am 12.4 7.8 6.7 68 2.7 SSW 20 30 11 16 1022.0 - 0.0
30/06:00am 12.5 7.9 6.5 67 2.9 SSW 20 28 11 15 1021.5 1021.6 0.0
30/05:30am 12.3 8.9 6.1 66 2.9 SSW 13 26 7 14 1021.4 - 0.0
30/05:00am 12.5 8.3 5.7 63 3.2 SSW 17 26 9 14 1021.3 1021.4 0.0
30/04:30am 12.4 8.1 5.3 62 3.3 SSW 17 28 9 15 1021.1 - 0.0
30/04:00am 12.5 8.6 5.4 62 3.3 SSW 15 24 8 13 1021.2 1021.3 0.0
30/03:30am 12.8 8.9 5.2 60 3.5 SW 15 28 8 15 1021.3 - 0.0
30/03:00am 12.5 8.6 5.2 61 3.4 SSW 15 24 8 13 1021.5 1021.6 0.0
30/02:30am 12.6 8.6 5.1 60 3.5 SW 15 24 8 13 1021.7 - 0.0
30/02:00am 12.6 9.0 5.1 60 3.5 SSW 13 24 7 13 1021.8 1021.9 0.0
30/01:30am 12.7 8.8 5.4 61 3.4 SSW 15 26 8 14 1021.9 - 0.0
30/01:00am 12.8 8.6 5.5 61 3.4 SSW 17 30 9 16 1022.2 1022.3 0.0
30/12:30am 12.7 8.1 5.4 61 3.4 SSW 19 32 10 17 1022.4 - 0.0
30/12:00am 12.6 8.4 5.8 63 3.2 SSW 17 26 9 14 1022.9 1022.9 0.0
 
Date/Time
EST
Temp
°C
App
Temp
°C
Dew
Point
Rel
Hum
%
Delta-T
°C
Wind Press
QNH
hPa
Press
MSL
hPa
Rain
since 9 am
mm
Dir
 
Spd
km/h
Gust
km/h
Spd
kts
Gust
kts
29/11:30pm 12.6 8.5 6.0 64 3.1 SSW 17 26 9 14 1023.2 - 0.0
29/11:00pm 12.9 8.4 6.0 63 3.3 SW 19 26 10 14 1023.0 1023.0 0.0
29/10:30pm 12.7 8.6 6.1 64 3.1 SSW 17 26 9 14 1023.4 - 0.0
29/10:00pm 12.8 8.8 6.8 67 2.9 SSW 17 28 9 15 1023.4 1023.4 0.0
29/09:30pm 12.6 9.3 6.6 67 2.9 SSW 13 22 7 12 1023.5 - 0.0
29/09:00pm 12.6 9.4 6.9 68 2.7 SSW 13 19 7 10 1023.7 1023.7 0.0
29/08:30pm 12.3 9.5 6.8 69 2.6 SSW 11 15 6 8 1023.8 - 0.0
29/08:00pm 12.9 9.7 6.9 67 2.9 SSW 13 20 7 11 1023.8 1023.8 0.0
29/07:30pm 13.0 9.8 6.8 66 3.0 SSW 13 20 7 11 1023.8 - 0.0
29/07:00pm 12.9 10.0 6.7 66 3.0 SW 11 15 6 8 1023.6 1023.6 0.0
29/06:30pm 13.3 10.7 6.2 62 3.4 SW 9 15 5 8 1023.4 - 0.0
29/06:00pm 14.2 10.6 6.8 61 3.6 SSW 15 22 8 12 1023.3 1023.3 0.0
29/05:30pm 14.7 10.9 7.7 63 3.5 SSW 17 22 9 12 1022.8 - 0.0
29/05:00pm 15.5 12.5 7.8 60 3.8 SSW 13 19 7 10 1022.7 1022.7 0.0
29/04:30pm 16.2 12.5 7.9 58 4.2 SSW 17 24 9 13 1022.7 - 0.0
29/04:00pm 16.2 12.2 8.2 59 4.0 SSW 19 28 10 15 1022.7 1022.7 0.0
29/03:30pm 15.7 11.5 7.5 58 4.1 SW 19 30 10 16 1022.7 - 0.0
29/03:00pm 15.6 12.3 9.5 67 3.2 SSW 17 24 9 13 1023.1 1023.1 0.0
29/02:30pm 16.0 11.9 8.0 59 4.0 S 19 26 10 14 1023.0 - 0.0
29/02:00pm 16.3 13.2 8.8 61 3.8 SW 15 24 8 13 1023.2 1023.2 0.0
29/01:30pm 15.2 11.0 8.2 63 3.5 SSW 20 28 11 15 1023.6 - 0.0
29/01:00pm 14.9 10.7 8.2 64 3.4 SSW 20 33 11 18 1024.0 1024.0 0.0
29/12:30pm 16.2 11.9 7.7 57 4.3 SSW 20 32 11 17 1024.2 - 0.0
29/12:00pm 15.1 10.3 7.2 59 3.9 SSW 22 37 12 20 1024.7 1024.7 0.0
29/11:30am 15.3 10.8 8.5 64 3.5 SSW 22 32 12 17 1025.1 - 0.0
29/11:00am 15.7 11.4 7.7 59 4.0 SSW 20 30 11 16 1025.4 1025.4 0.0
29/10:30am 14.5 10.4 8.0 65 3.2 SSW 19 26 10 14 1025.6 - 0.0
29/10:00am 14.4 10.0 7.2 62 3.5 SSW 20 33 11 18 1025.7 1025.7 0.0
29/09:30am 14.2 10.4 7.7 65 3.2 SSW 17 26 9 14 1025.9 - 0.0
29/09:00am 13.5 9.7 7.5 67 2.9 SSW 17 24 9 13 1026.2 1026.2 0.2
29/08:30am 13.0 9.9 7.2 68 2.8 SW 13 24 7 13 1026.3 - 0.2
29/08:00am 12.5 10.3 7.8 73 2.3 WSW 9 15 5 8 1026.2 1026.2 0.2
29/07:30am 10.6 8.6 6.4 75 2.0 SSW 6 7 3 4 1025.9 - 0.2
29/07:00am 10.6 8.1 6.6 76 1.9 SSW 9 13 5 7 1025.7 1025.7 0.2
29/06:30am 9.1 6.5 6.0 81 1.4 WSW 9 15 5 8 1025.3 - 0.2
29/06:00am 8.4 6.6 5.3 81 1.4 WSW 4 6 2 3 1025.5 1025.5 0.2
29/05:30am 9.9 7.3 6.1 77 1.8 SW 9 11 5 6 1025.1 - 0.2
29/05:00am 10.1 7.1 6.1 76 1.8 SW 11 15 6 8 1024.9 1024.9 0.2
29/04:30am 10.6 7.3 6.6 76 1.9 SSW 13 19 7 10 1024.9 - 0.2
29/04:00am 10.7 7.9 6.8 77 1.8 SSW 11 15 6 8 1024.8 1024.8 0.2
29/03:30am 10.4 7.5 6.4 76 1.9 SW 11 17 6 9 1024.9 - 0.2
29/03:00am 10.7 7.5 6.8 77 1.8 SW 13 19 7 10 1024.9 1024.9 0.2
29/02:30am 9.1 6.6 6.4 83 1.3 WSW 9 13 5 7 1025.2 - 0.2
29/02:00am 9.0 7.0 6.3 83 1.2 SW 6 11 3 6 1025.4 1025.4 0.2
29/01:30am 8.4 6.0 5.2 80 1.4 WSW 7 9 4 5 1025.6 - 0.2
29/01:00am 9.6 7.3 5.6 76 1.8 SW 7 11 4 6 1025.9 1025.9 0.2
29/12:30am 11.0 8.1 6.6 74 2.1 SW 11 15 6 8 1026.1 - 0.2
29/12:00am 11.3 8.3 6.2 71 2.4 SW 11 15 6 8 1026.0 1026.0 0.2
 
Date/Time
EST
Temp
°C
App
Temp
°C
Dew
Point
Rel
Hum
%
Delta-T
°C
Wind Press
QNH
hPa
Press
MSL
hPa
Rain
since 9 am
mm
Dir
 
Spd
km/h
Gust
km/h
Spd
kts
Gust
kts
28/11:30pm 11.5 8.5 6.2 70 2.5 SSW 11 15 6 8 1026.2 - 0.2
28/11:00pm 11.6 8.3 6.3 70 2.5 SW 13 17 7 9 1026.2 1026.2 0.2
28/10:30pm 11.9 8.9 6.2 68 2.7 SW 11 17 6 9 1026.5 - 0.2
28/10:00pm 12.0 9.1 6.3 68 2.7 SSW 11 15 6 8 1026.6 1026.6 0.2
28/09:30pm 11.6 9.0 5.9 68 2.7 SSW 9 17 5 9 1026.7 - 0.2
28/09:00pm 12.2 8.9 6.3 67 2.8 SSW 13 20 7 11 1026.7 1026.7 0.2
28/08:30pm 12.3 9.4 6.4 67 2.8 SSW 11 15 6 8 1026.6 - 0.2
28/08:00pm 12.3 9.3 6.1 66 2.9 SSW 11 19 6 10 1026.3 1026.3 0.2
28/07:30pm 12.5 9.1 6.1 65 3.0 SSW 13 17 7 9 1026.2 - 0.2
28/07:00pm 12.2 9.1 5.6 64 3.1 SW 11 15 6 8 1026.1 1026.1 0.2
28/06:30pm 12.9 10.3 6.0 63 3.3 S 9 15 5 8 1025.9 - 0.2
28/06:00pm 13.5 10.4 5.7 59 3.7 S 11 15 6 8 1025.7 1025.7 0.2
28/05:30pm 14.7 10.2 6.0 56 4.2 S 19 28 10 15 1025.5 - 0.2
28/05:00pm 15.7 11.1 6.4 54 4.5 S 20 33 11 18 1024.9 1024.9 0.2
28/04:30pm 16.5 11.0 7.4 55 4.6 SSE 26 37 14 20 1024.6 - 0.2
28/04:00pm 16.2 12.2 8.9 62 3.7 S 20 30 11 16 1024.4 1024.4 0.2
28/03:30pm 16.0 12.1 9.4 65 3.4 S 20 30 11 16 1024.2 - 0.2
28/03:00pm 17.9 12.0 7.3 50 5.3 SSE 28 41 15 22 1023.8 1023.8 0.2
28/02:30pm 18.7 13.3 6.2 44 6.2 SSE 24 37 13 20 1023.7 - 0.2
28/02:00pm 18.5 14.0 8.7 53 5.1 SE 22 30 12 16 1023.7 1023.7 0.2
28/01:30pm 19.0 14.7 9.5 54 5.0 SSE 22 32 12 17 1023.5 - 0.2
28/01:00pm 18.4 13.7 9.2 55 4.8 SSE 24 37 13 20 1023.7 1023.7 0.2
28/12:38pm 17.9 11.9 8.7 55 4.8 SE 30 41 16 22 1023.9 - 0.2
28/12:30pm 17.4 14.4 10.5 64 3.7 SSE 17 22 9 12 1024.0 - 0.2
28/12:00pm 17.7 13.9 11.0 65 3.6 SE 22 33 12 18 1024.5 1024.5 0.2
28/11:30am 16.0 12.3 10.3 69 3.0 SSE 20 26 11 14 1024.9 - 0.2
28/11:00am 17.0 14.2 11.5 70 3.0 S 17 26 9 14 1025.0 1025.0 0.0
28/10:30am 16.0 13.2 11.2 73 2.6 S 17 24 9 13 1025.0 - 0.0
28/10:00am 16.2 13.3 9.6 65 3.4 S 15 20 8 11 1025.0 1025.0 0.0
28/09:30am 15.2 12.3 11.0 76 2.2 S 17 24 9 13 1025.0 - 0.0
28/09:00am 14.5 12.0 12.4 87 1.1 SSW 17 22 9 12 1025.1 1025.1 8.2
28/08:30am 13.3 11.0 11.7 90 0.9 S 15 20 8 11 1025.1 - 8.2
28/08:00am 12.9 11.1 12.0 94 0.5 SSW 13 17 7 9 1024.8 1024.8 8.2
28/07:30am 12.1 10.1 11.5 96 0.3 SW 13 17 7 9 1024.4 - 8.0
28/07:00am 12.0 10.8 11.7 98 0.2 SSW 9 13 5 7 1024.3 1024.3 8.0
28/06:30am 12.1 9.7 11.5 96 0.3 S 15 19 8 10 1024.4 - 7.8
28/06:00am 11.7 9.1 10.8 94 0.5 SSW 15 20 8 11 1023.7 1023.7 7.4
28/05:30am 11.6 9.9 11.1 97 0.3 SW 11 17 6 9 1023.2 - 7.4
28/05:00am 11.7 10.3 10.9 95 0.4 SSW 9 19 5 10 1023.4 1023.4 7.2
28/04:30am 11.6 9.6 10.3 92 0.7 SSW 11 15 6 8 1023.0 - 6.8
28/04:00am 11.8 10.0 10.9 94 0.5 SSW 11 17 6 9 1023.0 1023.0 6.8
28/03:30am 11.4 8.7 10.3 93 0.6 SSW 15 22 8 12 1023.0 - 6.8
28/03:00am 11.6 8.2 10.7 94 0.5 SSW 19 28 10 15 1023.1 1023.1 6.8
28/02:30am 11.6 8.7 11.0 96 0.3 SSW 17 24 9 13 1023.1 - 6.8
28/02:00am 11.5 8.6 11.0 97 0.3 SSW 17 26 9 14 1023.2 1023.2 6.6
28/01:30am 11.6 8.6 10.7 94 0.5 S 17 24 9 13 1023.7 - 5.8
28/01:00am 12.4 9.4 9.1 80 1.7 S 15 22 8 12 1023.7 1023.7 4.4
28/12:30am 12.5 9.7 8.6 77 1.9 S 13 17 7 9 1023.9 - 4.4
28/12:00am 12.5 8.3 8.2 75 2.1 SSW 20 28 11 15 1023.8 1023.8 4.4
 
Date/Time
EST
Temp
°C
App
Temp
°C
Dew
Point
Rel
Hum
%
Delta-T
°C
Wind Press
QNH
hPa
Press
MSL
hPa
Rain
since 9 am
mm
Dir
 
Spd
km/h
Gust
km/h
Spd
kts
Gust
kts
27/11:30pm 12.6 9.0 8.3 75 2.1 SSW 17 28 9 15 1023.9 - 4.4
27/11:00pm 13.2 9.6 8.5 73 2.3 SSW 17 26 9 14 1024.0 1024.0 4.4
27/10:30pm 13.0 9.8 8.5 74 2.2 SSW 15 22 8 12 1024.0 - 4.4

Other Formats:

Comma delimited format used in spreadsheet applications
http://www.bom.gov.au/fwo/IDN60801/IDN60801.95771.axf

JavaScript Object Notation format (JSON) in row-major order
http://www.bom.gov.au/fwo/IDN60801/IDN60801.95771.json